Terminal Aerodrome Forecast
Issued by NWS

Home | Current Version | Previous Version | Text Only | Print | Product List | Glossary On
Versions: 1 2 3 4 5 6 7 8 9 10 11 12 13 14 15 16 17 18
000
FTUS45 KGJT 201738
TAFRIL
TAF
KRIL 201738Z 2018/2118 VRB04KT P6SM SKC
     FM201900 25012G25KT P6SM FEW120 FEW200
     FM210200 19008KT P6SM FEW130 FEW250
     FM210400 16006KT P6SM FEW130 FEW250
     FM210900 15004KT P6SM SKC
     FM211700 22006KT P6SM FEW110 FEW250=

USA.gov is the U.S. government's official web portal to all federal, state and local government web resources and services.